Moosonee, Canada
Current Conditions -  °F | °C
As of 12:00 AM on Saturday 25 Oct 2014 (Local Time) from CYMO Reporting Station
Overcast Overcast  
Wind Chill:   Ceiling: 10000
Heat Index:   Visibility: 9mi
Dew Point:   Wind: 10mph
Humidity: 87%   Direction: 190°S
Pressure: 29.56"   Gusts: NA
Location:  51.27°N, 80.64°W
Report Text: CYMO 250400Z AUTO 19009KT 9SM BKN100 OVC120 08/06 A2956 RMK SLP010
Loading
Personal Weather Stations






























Interactive Weather Map
Tropical Storm Tracking
New forecast layout! Learn more

10-Day Weather Forecast

Advertisements
Track Severe Weather on mobile